createdAt,value
2023-01-26T00:01:31.737Z,15.30
2023-01-26T00:04:33.256Z,14.90
2023-01-26T00:07:34.975Z,13.70
2023-01-26T00:10:37.133Z,15.70
2023-01-26T00:13:39.252Z,14.30
2023-01-26T00:16:40.891Z,15.00
2023-01-26T00:19:42.663Z,14.30
2023-01-26T00:22:44.526Z,14.70
2023-01-26T00:25:46.082Z,15.50
2023-01-26T00:28:47.828Z,14.70
2023-01-26T00:34:51.097Z,17.50
2023-01-26T00:37:52.632Z,15.50
2023-01-26T00:40:54.289Z,14.70
2023-01-26T00:43:56.097Z,14.70
2023-01-26T00:46:57.661Z,16.00
2023-01-26T00:49:59.336Z,15.60
2023-01-26T00:53:01.135Z,14.00
2023-01-26T00:59:04.323Z,13.90
2023-01-26T01:02:05.971Z,13.40
2023-01-26T01:05:08.022Z,13.70
2023-01-26T01:08:10.082Z,22.70
2023-01-26T01:11:12.104Z,14.60
2023-01-26T01:14:14.449Z,17.40
2023-01-26T01:17:16.124Z,17.00
2023-01-26T01:20:18.041Z,17.40
2023-01-26T01:26:21.552Z,17.10
2023-01-26T01:29:23.141Z,16.20
2023-01-26T01:32:24.803Z,15.50
2023-01-26T01:35:26.543Z,15.50
2023-01-26T01:38:28.813Z,17.40
2023-01-26T01:41:30.535Z,17.80
2023-01-26T01:47:36.926Z,19.50
2023-01-26T01:50:39.785Z,17.20
2023-01-26T01:53:43.737Z,16.10
2023-01-26T01:56:50.392Z,15.60
2023-01-26T01:59:57.841Z,19.20
2023-01-26T02:03:06.126Z,18.50
2023-01-26T02:06:21.600Z,18.80
2023-01-26T02:09:28.979Z,17.40
2023-01-26T02:12:32.738Z,16.00
2023-01-26T02:15:34.608Z,17.30
2023-01-26T02:18:36.412Z,17.20
2023-01-26T02:24:40.120Z,15.90
2023-01-26T02:27:41.797Z,15.30
2023-01-26T02:33:45.527Z,14.90
2023-01-26T02:36:59.273Z,14.00
2023-01-26T02:40:07.793Z,14.90
2023-01-26T02:43:09.996Z,14.30
2023-01-26T02:46:11.646Z,15.70
2023-01-26T02:49:13.212Z,16.20
2023-01-26T02:52:19.878Z,16.00
2023-01-26T02:55:21.502Z,15.60
2023-01-26T02:58:23.137Z,15.70
2023-01-26T03:01:25.112Z,16.50
2023-01-26T03:04:26.698Z,17.20
2023-01-26T03:10:30.146Z,16.10
2023-01-26T03:16:33.338Z,15.10
2023-01-26T03:19:35.000Z,14.70
2023-01-26T03:22:36.606Z,14.80
2023-01-26T03:25:38.274Z,14.40
2023-01-26T03:28:39.828Z,17.40
2023-01-26T03:31:41.549Z,17.00
2023-01-26T03:34:43.257Z,14.30
2023-01-26T03:40:46.380Z,16.10
2023-01-26T03:43:47.996Z,19.30
2023-01-26T03:46:49.695Z,15.00
2023-01-26T03:52:52.796Z,15.60
2023-01-26T03:55:54.421Z,14.60
2023-01-26T03:58:58.046Z,14.30
2023-01-26T04:01:59.718Z,16.50
2023-01-26T04:08:05.078Z,14.70
2023-01-26T04:11:06.895Z,16.10
2023-01-26T04:14:12.091Z,16.60
2023-01-26T04:17:14.100Z,16.40
2023-01-26T04:23:18.960Z,15.10
2023-01-26T04:26:20.752Z,15.80
2023-01-26T04:32:25.777Z,16.20
2023-01-26T04:35:27.354Z,16.30
2023-01-26T04:41:31.426Z,15.00
2023-01-26T04:44:33.063Z,15.60
2023-01-26T04:47:34.643Z,15.50
2023-01-26T04:50:36.291Z,15.90
2023-01-26T04:53:38.372Z,17.80
2023-01-26T04:56:40.007Z,22.30
2023-01-26T04:59:41.715Z,20.50
2023-01-26T05:02:43.301Z,21.90
2023-01-26T05:08:46.810Z,23.70
2023-01-26T05:11:48.500Z,20.20
2023-01-26T05:14:50.043Z,19.30
2023-01-26T05:17:51.754Z,16.70
2023-01-26T05:20:53.364Z,16.90
2023-01-26T05:23:55.511Z,21.50
2023-01-26T05:26:57.169Z,20.10
2023-01-26T05:29:59.087Z,22.30
2023-01-26T05:33:08.673Z,22.60
2023-01-26T05:36:10.360Z,22.10
2023-01-26T05:39:12.109Z,18.30
2023-01-26T05:45:15.864Z,18.80
2023-01-26T05:48:17.854Z,19.70
2023-01-26T05:51:19.499Z,19.90
2023-01-26T05:54:21.157Z,18.80
2023-01-26T05:57:22.660Z,20.10
2023-01-26T06:00:24.379Z,17.90
2023-01-26T06:03:25.919Z,16.90
2023-01-26T06:06:27.593Z,19.60
2023-01-26T06:09:29.135Z,19.40
2023-01-26T06:12:30.740Z,23.80
2023-01-26T06:15:32.389Z,21.40
2023-01-26T06:18:34.006Z,20.30
2023-01-26T06:21:35.860Z,19.00
2023-01-26T06:27:39.026Z,20.50
2023-01-26T06:30:40.774Z,18.00
2023-01-26T06:33:42.503Z,21.20
2023-01-26T06:36:44.201Z,18.50
2023-01-26T06:39:45.776Z,17.40
2023-01-26T06:42:48.820Z,18.30
2023-01-26T06:45:50.745Z,19.00
2023-01-26T06:52:05.894Z,20.10
2023-01-26T06:55:16.872Z,19.90
2023-01-26T06:58:18.453Z,20.60
2023-01-26T07:01:22.391Z,21.70
2023-01-26T07:04:26.514Z,18.40
2023-01-26T07:07:28.302Z,21.90
2023-01-26T07:10:30.712Z,20.10
2023-01-26T07:13:32.317Z,21.10
2023-01-26T07:16:34.345Z,20.30
2023-01-26T07:19:35.919Z,20.80
2023-01-26T07:22:37.615Z,21.60
2023-01-26T07:25:43.641Z,19.60
2023-01-26T07:28:45.324Z,18.20
2023-01-26T07:31:46.868Z,18.80
2023-01-26T07:34:48.481Z,18.10
2023-01-26T07:37:49.974Z,19.00
2023-01-26T07:40:52.160Z,19.50
2023-01-26T07:43:53.701Z,22.70
2023-01-26T07:46:55.469Z,27.70
2023-01-26T07:53:00.830Z,22.10
2023-01-26T07:56:10.703Z,20.80
2023-01-26T07:59:12.355Z,22.30
2023-01-26T08:02:13.898Z,20.70
2023-01-26T08:05:15.619Z,18.60
2023-01-26T08:11:19.663Z,20.50
2023-01-26T08:14:21.237Z,22.60
2023-01-26T08:17:23.160Z,19.90
2023-01-26T08:20:24.916Z,18.20
2023-01-26T08:23:27.340Z,19.10
2023-01-26T08:26:28.956Z,19.30
2023-01-26T08:29:30.622Z,20.00
2023-01-26T08:32:32.200Z,19.80
2023-01-26T08:35:34.375Z,19.00
2023-01-26T08:38:36.391Z,19.30
2023-01-26T08:41:37.964Z,19.10
2023-01-26T08:44:39.491Z,25.90
2023-01-26T08:47:41.094Z,21.30
2023-01-26T08:50:42.735Z,20.50
2023-01-26T08:53:44.513Z,28.30
2023-01-26T08:59:47.720Z,20.50
2023-01-26T09:02:49.364Z,32.80
2023-01-26T09:05:51.159Z,19.30
2023-01-26T09:08:52.790Z,41.70
2023-01-26T09:11:57.626Z,23.60
2023-01-26T09:14:59.249Z,20.50
2023-01-26T09:21:07.735Z,35.80
2023-01-26T09:24:09.466Z,26.60
2023-01-26T09:27:11.216Z,19.80
2023-01-26T09:30:13.398Z,19.20
2023-01-26T09:33:15.016Z,18.20
2023-01-26T09:36:16.952Z,17.20
2023-01-26T09:39:18.600Z,17.40
2023-01-26T09:45:38.418Z,17.10
2023-01-26T09:49:04.189Z,16.40
2023-01-26T09:52:26.744Z,17.20
2023-01-26T09:55:28.427Z,17.50
2023-01-26T09:58:35.064Z,17.80
2023-01-26T10:02:04.667Z,18.40
2023-01-26T10:05:14.891Z,19.00
2023-01-26T10:08:18.816Z,17.30
2023-01-26T10:11:22.386Z,16.80
2023-01-26T10:14:41.557Z,17.40
2023-01-26T10:17:44.211Z,16.60
2023-01-26T10:20:50.869Z,16.10
2023-01-26T10:23:52.866Z,16.60
2023-01-26T10:26:57.176Z,18.00
2023-01-26T10:29:58.834Z,25.80
2023-01-26T10:36:04.932Z,19.00
2023-01-26T10:39:12.536Z,49.70
2023-01-26T10:42:18.822Z,105.80
2023-01-26T10:45:29.853Z,33.10
2023-01-26T10:48:31.678Z,27.20
2023-01-26T10:51:34.750Z,26.10
2023-01-26T10:54:36.666Z,29.20
2023-01-26T10:57:40.027Z,20.90
2023-01-26T11:00:41.686Z,23.00
2023-01-26T11:04:04.352Z,26.50
2023-01-26T11:07:29.350Z,18.20
2023-01-26T11:10:35.222Z,23.00
2023-01-26T11:13:37.342Z,25.40
2023-01-26T11:16:39.077Z,30.30
2023-01-26T11:23:18.989Z,17.50
2023-01-26T11:26:45.691Z,15.10
2023-01-26T11:29:53.484Z,18.20
2023-01-26T11:33:13.600Z,16.30
2023-01-26T11:36:31.417Z,17.70
2023-01-26T11:39:54.696Z,16.20
2023-01-26T11:43:05.921Z,16.00
2023-01-26T11:46:16.379Z,18.60
2023-01-26T11:49:49.204Z,18.20
2023-01-26T11:52:56.827Z,17.90
2023-01-26T11:56:19.854Z,19.10
2023-01-26T11:59:41.686Z,17.70
2023-01-26T12:02:46.977Z,17.50
2023-01-26T12:05:54.377Z,17.10
2023-01-26T12:09:13.314Z,17.70
2023-01-26T12:12:24.820Z,17.20
2023-01-26T12:15:33.535Z,17.20
2023-01-26T12:18:53.252Z,17.90
2023-01-26T12:22:06.592Z,18.00
2023-01-26T12:25:19.810Z,16.10
2023-01-26T12:28:39.243Z,17.20
2023-01-26T12:31:56.692Z,16.90
2023-01-26T12:34:58.391Z,23.80
2023-01-26T12:38:51.602Z,22.00
2023-01-26T12:41:59.169Z,56.80
2023-01-26T12:45:01.608Z,21.70
2023-01-26T12:48:03.265Z,21.30
2023-01-26T12:51:11.390Z,18.50
2023-01-26T12:54:17.224Z,17.20
2023-01-26T12:57:22.892Z,15.90
2023-01-26T13:00:30.149Z,16.10
2023-01-26T13:03:34.425Z,16.50
2023-01-26T13:06:36.070Z,17.70
2023-01-26T13:09:37.767Z,17.40
2023-01-26T13:16:30.496Z,16.70
2023-01-26T13:19:35.856Z,16.40
2023-01-26T13:22:39.697Z,16.50
2023-01-26T13:25:52.215Z,16.90
2023-01-26T13:29:26.495Z,16.20
2023-01-26T13:32:28.105Z,16.80
2023-01-26T13:35:30.626Z,18.20
2023-01-26T13:38:45.313Z,17.50
2023-01-26T13:41:48.028Z,19.40
2023-01-26T13:44:55.054Z,18.30
2023-01-26T13:47:58.186Z,19.10
2023-01-26T13:51:01.182Z,22.00
2023-01-26T13:54:07.199Z,22.10
2023-01-26T13:57:11.563Z,22.90
2023-01-26T14:00:14.614Z,22.40
2023-01-26T14:03:21.293Z,22.20
2023-01-26T14:06:22.956Z,21.90
2023-01-26T14:09:27.353Z,19.50
2023-01-26T14:12:41.928Z,19.30
2023-01-26T14:15:43.572Z,22.80
2023-01-26T14:18:48.618Z,23.20
2023-01-26T14:22:00.570Z,23.30
2023-01-26T14:25:02.291Z,23.20
2023-01-26T14:28:04.635Z,23.10
2023-01-26T14:31:18.448Z,28.60
2023-01-26T14:34:30.747Z,22.30
2023-01-26T14:37:32.386Z,21.80
2023-01-26T14:43:35.603Z,21.70
2023-01-26T14:46:51.770Z,25.70
2023-01-26T14:50:06.598Z,26.00
2023-01-26T14:53:19.365Z,25.20
2023-01-26T14:56:23.913Z,25.60
2023-01-26T14:59:32.079Z,34.20
2023-01-26T15:02:43.133Z,29.70
2023-01-26T15:05:44.914Z,32.70
2023-01-26T15:12:13.710Z,25.30
2023-01-26T15:15:15.578Z,25.30
2023-01-26T15:21:21.617Z,32.60
2023-01-26T15:24:23.322Z,30.70
2023-01-26T15:30:29.210Z,29.60
2023-01-26T15:33:38.369Z,31.20
2023-01-26T15:36:43.276Z,34.80
2023-01-26T15:39:45.020Z,32.80
2023-01-26T15:45:57.306Z,35.40
2023-01-26T15:48:58.969Z,61.60
2023-01-26T15:55:02.116Z,31.30
2023-01-26T15:58:03.724Z,37.00
2023-01-26T16:01:05.764Z,37.70
2023-01-26T16:04:11.919Z,32.20
2023-01-26T16:07:16.123Z,38.50
2023-01-26T16:10:17.843Z,42.20
2023-01-26T16:16:21.361Z,38.30
2023-01-26T16:19:34.631Z,38.40
2023-01-26T16:22:37.067Z,38.30
2023-01-26T16:28:40.271Z,39.40
2023-01-26T16:31:41.890Z,36.00
2023-01-26T16:34:43.559Z,36.20
2023-01-26T16:37:45.192Z,38.80
2023-01-26T16:40:48.068Z,36.70
2023-01-26T16:43:49.753Z,36.80
2023-01-26T16:46:51.343Z,39.00
2023-01-26T16:49:52.868Z,38.50
2023-01-26T16:52:55.233Z,37.00
2023-01-26T16:55:57.023Z,39.10
2023-01-26T17:02:00.375Z,38.20
2023-01-26T17:08:03.690Z,39.30
2023-01-26T17:14:06.911Z,37.30
2023-01-26T17:17:10.070Z,39.80
2023-01-26T17:20:19.361Z,39.30
2023-01-26T17:23:21.783Z,44.90
2023-01-26T17:26:23.589Z,45.80
2023-01-26T17:29:25.264Z,45.40
2023-01-26T17:32:26.962Z,39.20
2023-01-26T17:35:28.605Z,39.30
2023-01-26T17:38:30.344Z,39.90
2023-01-26T17:41:31.925Z,43.50
2023-01-26T17:44:34.220Z,39.50
2023-01-26T17:47:36.283Z,41.00
2023-01-26T17:50:37.874Z,34.70
2023-01-26T17:53:40.916Z,35.60
2023-01-26T17:56:43.189Z,41.10
2023-01-26T17:59:44.782Z,55.30
2023-01-26T18:02:46.427Z,47.30
2023-01-26T18:05:56.619Z,43.40
2023-01-26T18:08:58.300Z,40.80
2023-01-26T18:12:00.047Z,38.80
2023-01-26T18:15:01.652Z,43.80
2023-01-26T18:21:11.298Z,37.50
2023-01-26T18:24:12.874Z,39.40
2023-01-26T18:27:14.533Z,39.70
2023-01-26T18:30:16.692Z,46.30
2023-01-26T18:33:18.335Z,41.30
2023-01-26T18:36:21.063Z,47.70
2023-01-26T18:39:22.698Z,46.10
2023-01-26T18:42:24.277Z,43.50
2023-01-26T18:45:25.935Z,37.30
2023-01-26T18:48:27.975Z,35.30
2023-01-26T18:51:35.070Z,36.30
2023-01-26T18:54:36.726Z,48.00
2023-01-26T18:57:38.569Z,48.30
2023-01-26T19:00:40.200Z,47.40
2023-01-26T19:06:43.949Z,42.40
2023-01-26T19:09:45.935Z,43.70
2023-01-26T19:12:50.538Z,41.60
2023-01-26T19:15:52.220Z,38.70
2023-01-26T19:18:54.009Z,40.20
2023-01-26T19:24:57.227Z,40.80
2023-01-26T19:27:58.848Z,47.50
2023-01-26T19:31:04.139Z,46.70
2023-01-26T19:34:07.871Z,38.00
2023-01-26T19:37:12.855Z,32.30
2023-01-26T19:40:14.614Z,32.90
2023-01-26T19:46:19.411Z,31.90
2023-01-26T19:49:21.404Z,32.60
2023-01-26T19:52:23.000Z,31.30
2023-01-26T19:55:24.644Z,32.00
2023-01-26T19:58:27.460Z,33.70
2023-01-26T20:01:30.156Z,33.50
2023-01-26T20:04:31.771Z,33.10
2023-01-26T20:07:33.429Z,36.10
2023-01-26T20:10:35.003Z,38.10
2023-01-26T20:13:36.810Z,38.80
2023-01-26T20:19:40.104Z,35.90
2023-01-26T20:22:41.748Z,36.10
2023-01-26T20:25:43.425Z,35.60
2023-01-26T20:28:45.060Z,33.00
2023-01-26T20:31:47.841Z,34.80
2023-01-26T20:34:49.833Z,33.10
2023-01-26T20:37:51.527Z,33.50
2023-01-26T20:40:53.212Z,35.10
2023-01-26T20:44:01.620Z,33.30
2023-01-26T20:47:03.716Z,34.10
2023-01-26T20:50:06.343Z,35.60
2023-01-26T20:53:08.294Z,34.40
2023-01-26T20:56:10.780Z,38.40
2023-01-26T20:59:12.421Z,36.20
2023-01-26T21:02:14.960Z,34.60
2023-01-26T21:05:16.749Z,36.10
2023-01-26T21:11:20.736Z,34.40
2023-01-26T21:14:22.341Z,36.90
2023-01-26T21:17:23.928Z,40.10
2023-01-26T21:20:25.532Z,40.50
2023-01-26T21:23:27.263Z,38.30
2023-01-26T21:26:28.917Z,39.20
2023-01-26T21:29:30.443Z,40.40
2023-01-26T21:32:32.021Z,42.40
2023-01-26T21:35:33.753Z,50.70
2023-01-26T21:38:43.674Z,51.80
2023-01-26T21:41:45.274Z,48.70
2023-01-26T21:44:46.916Z,52.10
2023-01-26T21:47:50.688Z,46.30
2023-01-26T21:50:56.051Z,40.90
2023-01-26T21:53:57.730Z,43.90
2023-01-26T21:57:00.008Z,38.10
2023-01-26T22:00:01.561Z,35.90
2023-01-26T22:03:03.237Z,33.10
2023-01-26T22:06:04.957Z,35.70
2023-01-26T22:15:10.611Z,41.80
2023-01-26T22:18:12.307Z,49.40
2023-01-26T22:24:15.712Z,38.80
2023-01-26T22:27:17.478Z,37.00
2023-01-26T22:30:19.099Z,36.70
2023-01-26T22:33:20.634Z,36.30
2023-01-26T22:36:23.186Z,37.60
2023-01-26T22:39:24.878Z,39.50
2023-01-26T22:42:26.483Z,38.80
2023-01-26T22:45:28.140Z,38.60
2023-01-26T22:48:30.721Z,41.20
2023-01-26T22:51:34.171Z,40.80
2023-01-26T22:54:36.385Z,38.60
2023-01-26T22:57:37.933Z,35.60
2023-01-26T23:00:39.520Z,40.50
2023-01-26T23:03:42.508Z,40.00
2023-01-26T23:06:44.208Z,41.50
2023-01-26T23:09:45.867Z,39.40
2023-01-26T23:12:47.571Z,37.90
2023-01-26T23:15:49.175Z,36.70
2023-01-26T23:18:55.335Z,36.40
2023-01-26T23:21:56.976Z,39.00
2023-01-26T23:24:58.544Z,37.30
2023-01-26T23:28:04.017Z,38.80
2023-01-26T23:31:05.885Z,55.60
2023-01-26T23:34:07.455Z,49.70
2023-01-26T23:40:11.680Z,37.10
2023-01-26T23:43:17.051Z,34.70
2023-01-26T23:46:18.988Z,35.80
2023-01-26T23:49:20.841Z,44.50
2023-01-26T23:55:24.085Z,41.20
2023-01-26T23:58:26.021Z,41.50
